Time;durP1;ratioP1;P1;durP2;ratioP2;P2;SDS_P1;SDS_P2;PMS_P1;PMS_P2;Temp;Humidity;BMP_temperature;BMP_pressure;BME280_temperature;BME280_humidity;BME280_pressure;Samples;Min_cycle;Max_cycle;Signal;HPM_P1;HPM_P2
2022/02/02 00:05:07;;;;;;;0.75;0.63;;;2.30;99.90;;;;;;5052232;28;20040;-71
2022/02/02 00:07:45;;;;;;;0.10;0.10;;;2.30;99.90;;;;;;5052049;28;20029;-71
2022/02/02 00:10:34;;;;;;;2.08;0.40;;;2.30;99.90;;;;;;5017962;28;20021;-71
2022/02/02 00:13:04;;;;;;;1.23;1.13;;;2.30;99.90;;;;;;5051877;28;20108;-71
2022/02/02 00:15:59;;;;;;;2.70;0.70;;;2.30;99.90;;;;;;5052153;28;20025;-71
2022/02/02 00:19:35;;;;;;;1.58;0.98;;;2.40;99.90;;;;;;5034148;28;20047;-71
2022/02/02 00:24:00;;;;;;;0.50;0.50;;;2.50;99.90;;;;;;5033956;28;20052;-71
2022/02/02 00:26:31;;;;;;;0.10;0.10;;;2.50;99.90;;;;;;5051010;28;20031;-71
2022/02/02 00:29:04;;;;;;;0.10;0.10;;;2.50;99.90;;;;;;5034419;28;20059;-71
2022/02/02 00:31:37;;;;;;;0.40;0.40;;;2.70;99.90;;;;;;5033969;28;20504;-71
2022/02/02 00:34:08;;;;;;;3.17;0.63;;;2.70;99.90;;;;;;5033891;28;20021;-71
2022/02/02 00:36:45;;;;;;;0.35;0.35;;;2.60;99.90;;;;;;5051728;28;20031;-71
2022/02/02 00:39:11;;;;;;;0.57;0.50;;;2.60;99.90;;;;;;5051755;28;20103;-71
2022/02/02 00:41:37;;;;;;;0.73;0.50;;;2.60;99.90;;;;;;5051593;28;20100;-71
2022/02/02 00:44:03;;;;;;;0.70;0.70;;;2.60;99.90;;;;;;5033720;28;20036;-71
2022/02/02 00:46:30;;;;;;;0.20;0.20;;;2.60;99.90;;;;;;5033632;28;20161;-71
2022/02/02 00:49:02;;;;;;;0.70;0.60;;;2.60;99.90;;;;;;5051740;28;20063;-71
2022/02/02 00:51:47;;;;;;;0.20;0.20;;;2.60;99.90;;;;;;5033709;28;20032;-71
2022/02/02 00:54:14;;;;;;;0.40;0.40;;;2.60;99.90;;;;;;5051517;28;20033;-71
2022/02/02 00:56:40;;;;;;;0.50;0.50;;;2.70;99.90;;;;;;5051427;28;20476;-71
2022/02/02 00:59:06;;;;;;;0.40;0.40;;;2.60;99.90;;;;;;5051669;28;20392;-71
2022/02/02 01:01:31;;;;;;;1.42;1.33;;;2.60;99.90;;;;;;5051691;28;20025;-71
2022/02/02 01:03:57;;;;;;;0.43;0.30;;;2.60;99.90;;;;;;5033406;28;20021;-71
2022/02/02 01:06:25;;;;;;;0.93;0.68;;;2.60;99.90;;;;;;5033498;28;20534;-71
2022/02/02 01:09:10;;;;;;;0.65;0.38;;;2.70;99.90;;;;;;5051453;28;20029;-71
2022/02/02 01:19:45;;;;;;;0.30;0.30;;;2.70;99.90;;;;;;5033497;28;20029;-72
2022/02/02 01:30:08;;;;;;;0.20;0.20;;;2.80;99.90;;;;;;5051381;28;20028;-72
2022/02/02 01:32:34;;;;;;;0.60;0.60;;;2.80;99.90;;;;;;5033267;28;20082;-71
2022/02/02 01:34:59;;;;;;;0.10;0.10;;;2.90;99.90;;;;;;5051311;28;20025;-71
2022/02/02 01:37:27;;;;;;;3.53;0.60;;;2.90;99.90;;;;;;5051021;28;20021;-72
2022/02/02 01:40:00;;;;;;;0.20;0.20;;;2.90;99.90;;;;;;5054826;28;20511;-71
2022/02/02 01:42:31;;;;;;;0.40;0.40;;;2.90;99.90;;;;;;5054688;28;20048;-71
2022/02/02 01:45:43;;;;;;;;;;;2.90;99.90;;;;;;5055227;28;20017;-71
2022/02/02 01:48:06;;;;;;;0.22;0.22;;;2.90;99.90;;;;;;5048919;28;19908;-72
2022/02/02 01:56:08;;;;;;;0.40;0.40;;;3.00;99.90;;;;;;5036574;28;20036;-71
2022/02/02 02:01:00;;;;;;;0.17;0.17;;;2.90;99.90;;;;;;5054344;28;20055;-71
2022/02/02 02:03:26;;;;;;;0.20;0.20;;;3.00;99.90;;;;;;5054173;28;20032;-72
2022/02/02 02:05:52;;;;;;;0.38;0.30;;;2.90;99.90;;;;;;5036492;28;20017;-71
2022/02/02 02:08:18;;;;;;;0.30;0.30;;;2.90;99.90;;;;;;5054287;28;20032;-71
2022/02/02 02:10:44;;;;;;;0.20;0.20;;;2.90;99.90;;;;;;5054317;28;20477;-71
2022/02/02 02:13:21;;;;;;;0.17;0.17;;;2.90;99.90;;;;;;5054143;28;20068;-71
2022/02/02 02:15:47;;;;;;;0.13;0.13;;;2.90;99.90;;;;;;5054036;28;20052;-71
2022/02/02 02:18:13;;;;;;;0.32;0.32;;;2.90;99.90;;;;;;5054182;28;20057;-72
2022/02/02 02:20:40;;;;;;;0.30;0.30;;;2.90;99.90;;;;;;5036133;28;20071;-71
2022/02/02 02:23:06;;;;;;;0.52;0.52;;;2.80;99.90;;;;;;5053799;28;20032;-71
2022/02/02 02:25:33;;;;;;;0.20;0.20;;;2.80;99.90;;;;;;5053869;28;20333;-71
2022/02/02 02:28:14;;;;;;;0.20;0.20;;;2.80;99.90;;;;;;5053865;28;20075;-71
2022/02/02 02:30:51;;;;;;;0.20;0.20;;;2.80;99.90;;;;;;5053896;28;20021;-72
2022/02/02 02:58:21;;;;;;;0.50;0.50;;;3.00;99.90;;;;;;5053256;28;20025;-72
2022/02/02 03:00:55;;;;;;;0.30;0.30;;;3.00;99.90;;;;;;5051750;28;20040;-72
2022/02/02 03:14:05;;;;;;;0.40;0.40;;;3.10;99.90;;;;;;5053195;28;20028;-72
2022/02/02 03:30:59;;;;;;;0.20;0.20;;;3.10;99.90;;;;;;5053166;28;20025;-73
2022/02/02 04:07:51;;;;;;;0.10;0.10;;;3.00;99.90;;;;;;5052190;28;20021;-71
2022/02/02 04:10:17;;;;;;;0.10;0.10;;;3.10;99.90;;;;;;5034427;28;20096;-71
2022/02/02 04:12:56;;;;;;;0.68;0.68;;;3.20;99.90;;;;;;5034041;28;20024;-70
2022/02/02 04:37:19;;;;;;;;;;;3.10;99.90;;;;;;5052526;28;20088;-71
2022/02/02 04:51:34;;;;;;;0.52;0.28;;;3.10;99.90;;;;;;5051627;28;20396;-70
2022/02/02 04:54:28;;;;;;;1.05;1.05;;;3.10;99.90;;;;;;5033767;28;20029;-70
2022/02/02 04:57:20;;;;;;;0.30;0.30;;;3.00;99.90;;;;;;5050971;28;20048;-71
2022/02/02 05:00:41;;;;;;;0.20;0.15;;;3.00;99.90;;;;;;5033655;28;20111;-70
2022/02/02 05:05:37;;;;;;;0.28;0.28;;;3.00;99.90;;;;;;5051673;28;20029;-71
2022/02/02 05:10:44;;;;;;;1.85;0.70;;;2.90;99.90;;;;;;5051670;28;20033;-71
2022/02/02 05:26:54;;;;;;;0.65;0.65;;;3.00;99.90;;;;;;5054924;28;20033;-70
2022/02/02 05:52:31;;;;;;;;;;;3.00;99.90;;;;;;5055005;28;20037;-70
2022/02/02 05:54:56;;;;;;;0.35;0.32;;;3.00;99.90;;;;;;5054541;28;19911;-71
2022/02/02 05:57:26;;;;;;;0.25;0.25;;;3.00;99.90;;;;;;5054481;28;20111;-70
2022/02/02 05:59:56;;;;;;;1.88;0.90;;;3.00;99.90;;;;;;5020133;28;20021;-70
2022/02/02 06:02:30;;;;;;;2.10;1.33;;;3.10;99.90;;;;;;5054097;28;20071;-70
2022/02/02 06:04:58;;;;;;;3.20;0.93;;;3.10;99.90;;;;;;5020122;28;20029;-71
2022/02/02 06:07:24;;;;;;;2.72;0.82;;;3.10;99.90;;;;;;5054370;28;20096;-71
2022/02/02 06:09:51;;;;;;;0.08;0.08;;;3.10;99.90;;;;;;5054340;28;20067;-70
2022/02/02 06:12:21;;;;;;;0.20;0.20;;;3.10;99.90;;;;;;5036250;28;20526;-71
2022/02/02 06:14:50;;;;;;;1.20;0.40;;;3.20;99.90;;;;;;5019886;28;20033;-71
2022/02/02 06:17:16;;;;;;;0.50;0.45;;;3.20;99.90;;;;;;5054066;28;20032;-71
2022/02/02 06:19:42;;;;;;;2.35;0.95;;;3.30;99.90;;;;;;5036337;28;20025;-73
2022/02/02 06:22:10;;;;;;;0.80;0.80;;;3.30;99.90;;;;;;5053870;28;20025;-71
2022/02/02 06:24:51;;;;;;;0.10;0.10;;;3.30;99.90;;;;;;5052815;28;20029;-71
2022/02/02 06:27:25;;;;;;;1.50;1.30;;;3.30;99.90;;;;;;5053927;28;20032;-71
2022/02/02 06:30:05;;;;;;;1.50;0.73;;;3.30;99.90;;;;;;5053916;28;20380;-71
2022/02/02 06:32:37;;;;;;;3.20;1.23;;;3.30;99.90;;;;;;5035920;28;20025;-71
2022/02/02 06:35:05;;;;;;;4.00;1.08;;;3.30;99.90;;;;;;5053982;28;20032;-71
2022/02/02 06:37:31;;;;;;;2.88;1.67;;;3.30;99.90;;;;;;5053623;28;20025;-71
2022/02/02 06:39:57;;;;;;;0.47;0.47;;;3.30;99.90;;;;;;5019692;28;20362;-71
2022/02/02 06:42:23;;;;;;;4.55;1.02;;;3.40;99.90;;;;;;5036862;28;20028;-71
2022/02/02 06:44:50;;;;;;;0.30;0.30;;;3.40;99.90;;;;;;5042527;28;20481;-71
2022/02/02 06:47:17;;;;;;;0.22;0.22;;;3.40;99.90;;;;;;5053338;28;20082;-71
2022/02/02 06:49:46;;;;;;;11.65;4.78;;;3.50;99.90;;;;;;5035254;28;20151;-71
2022/02/02 06:52:22;;;;;;;0.40;0.40;;;3.50;99.90;;;;;;5052353;28;20029;-71
2022/02/02 06:55:04;;;;;;;4.95;0.60;;;3.50;99.90;;;;;;5054354;28;20041;-71
2022/02/02 06:57:50;;;;;;;12.75;1.40;;;3.50;99.90;;;;;;5049051;28;20036;-71
2022/02/02 07:00:33;;;;;;;1.70;0.93;;;3.60;99.90;;;;;;5052301;28;20052;-71
2022/02/02 07:03:22;;;;;;;3.67;2.38;;;3.60;99.90;;;;;;5040010;28;20543;-71
2022/02/02 07:08:55;;;;;;;0.20;0.20;;;3.60;99.90;;;;;;5069122;28;20424;-71
2022/02/02 07:12:20;;;;;;;0.40;0.40;;;3.60;99.90;;;;;;5053221;28;20033;-71
2022/02/02 07:14:36;;;;;;;0.20;0.20;;;3.50;99.90;;;;;;5038850;28;20497;-73
2022/02/02 07:17:19;;;;;;;0.73;0.73;;;3.50;99.90;;;;;;5033898;28;20033;-74
2022/02/02 07:20:03;;;;;;;2.58;1.00;;;3.30;99.90;;;;;;5034102;28;20032;-71
2022/02/02 07:23:05;;;;;;;6.05;0.82;;;3.20;99.90;;;;;;5052310;28;20025;-71
2022/02/02 07:26:01;;;;;;;11.27;1.20;;;3.00;99.90;;;;;;5034413;28;20075;-71
2022/02/02 07:31:06;;;;;;;5.65;1.65;;;2.90;99.90;;;;;;5051250;28;20653;-79
2022/02/02 07:33:38;;;;;;;0.30;0.30;;;2.90;99.90;;;;;;5051697;28;20399;-73
2022/02/02 07:36:12;;;;;;;0.30;0.30;;;2.90;99.90;;;;;;5052329;28;20025;-72
2022/02/02 07:38:41;;;;;;;0.30;0.30;;;2.80;99.90;;;;;;5049241;28;20028;-71
2022/02/02 07:41:13;;;;;;;0.20;0.20;;;2.80;99.90;;;;;;5054210;28;20028;-70
2022/02/02 07:43:42;;;;;;;0.50;0.50;;;2.70;99.90;;;;;;5072316;28;20116;-73
2022/02/02 07:46:14;;;;;;;0.13;0.13;;;2.80;99.90;;;;;;5054282;28;20033;-70
2022/02/02 07:48:41;;;;;;;;;;;2.80;99.90;;;;;;5020106;28;20031;-70
2022/02/02 07:51:09;;;;;;;0.38;0.32;;;2.90;99.90;;;;;;5052103;28;19905;-72
2022/02/02 07:53:41;;;;;;;0.10;0.10;;;2.90;99.90;;;;;;5051857;28;20132;-73
2022/02/02 07:56:14;;;;;;;0.45;0.45;;;3.00;99.90;;;;;;5056126;28;20029;-72
2022/02/02 07:58:44;;;;;;;8.75;1.40;;;3.00;99.90;;;;;;5052445;28;20029;-73
2022/02/02 08:01:10;;;;;;;0.57;0.57;;;3.00;99.90;;;;;;5050676;28;20025;-71
2022/02/02 08:03:42;;;;;;;0.32;0.32;;;3.10;99.90;;;;;;5034135;28;20032;-71
2022/02/02 08:06:10;;;;;;;0.20;0.20;;;3.20;99.90;;;;;;5031867;28;20048;-71
2022/02/02 08:08:38;;;;;;;0.13;0.13;;;3.20;99.90;;;;;;5014355;28;20033;-71
2022/02/02 08:11:08;;;;;;;0.60;0.60;;;3.20;99.90;;;;;;5031711;28;20029;-71
2022/02/02 08:13:44;;;;;;;3.63;1.33;;;3.30;99.90;;;;;;5031865;28;20025;-71
2022/02/02 08:16:16;;;;;;;3.10;1.38;;;3.30;99.90;;;;;;5031793;28;20160;-72
2022/02/02 08:18:45;;;;;;;;;;;3.20;99.90;;;;;;5014579;28;20037;-73
2022/02/02 08:21:11;;;;;;;8.18;1.75;;;3.30;99.90;;;;;;5035106;28;20348;-71
2022/02/02 08:23:37;;;;;;;4.75;1.48;;;3.30;99.90;;;;;;5016805;28;20028;-71
2022/02/02 08:26:10;;;;;;;0.30;0.30;;;3.30;99.90;;;;;;5051563;28;20025;-71
2022/02/02 08:28:40;;;;;;;0.45;0.45;;;3.40;99.90;;;;;;5033813;28;20500;-71
2022/02/02 08:31:07;;;;;;;5.53;0.60;;;3.50;99.90;;;;;;5050491;28;20032;-70
2022/02/02 08:33:39;;;;;;;0.30;0.30;;;3.50;99.90;;;;;;5050757;28;20029;-71
2022/02/02 08:36:10;;;;;;;0.10;0.10;;;3.60;99.90;;;;;;5033752;28;20147;-71
2022/02/02 08:41:35;;;;;;;0.10;0.10;;;3.70;99.90;;;;;;5037030;28;20136;-71
2022/02/02 08:44:07;;;;;;;0.10;0.10;;;3.70;99.90;;;;;;5037133;28;20017;-71
2022/02/02 08:46:37;;;;;;;0.17;0.17;;;3.80;99.90;;;;;;5028253;28;20031;-71
2022/02/02 08:49:07;;;;;;;0.20;0.20;;;3.90;99.90;;;;;;5040738;28;20492;-71
2022/02/02 08:51:39;;;;;;;0.20;0.20;;;4.00;99.90;;;;;;5047601;28;20031;-72
2022/02/02 09:01:48;;;;;;;1.80;0.90;;;3.10;99.90;;;;;;5046670;28;20029;-71
2022/02/02 09:07:00;;;;;;;0.50;0.50;;;2.80;99.90;;;;;;5050407;28;20500;-71
2022/02/02 09:09:49;;;;;;;3.92;1.15;;;2.80;99.90;;;;;;5054164;28;20021;-71
2022/02/02 09:25:56;;;;;;;0.10;0.10;;;3.30;99.90;;;;;;5054269;28;20144;-71
2022/02/02 09:34:03;;;;;;;0.22;0.22;;;3.60;99.90;;;;;;5053592;28;20031;-70
2022/02/02 09:36:30;;;;;;;1.40;0.52;;;3.60;99.90;;;;;;5047249;28;20033;-70
2022/02/02 09:38:58;;;;;;;3.10;1.20;;;3.60;99.90;;;;;;5054257;28;20032;-71
2022/02/02 09:41:36;;;;;;;0.20;0.20;;;3.70;99.90;;;;;;5053561;28;20536;-70
2022/02/02 09:44:04;;;;;;;11.13;1.80;;;3.70;99.90;;;;;;5052532;28;20608;-71
2022/02/02 09:46:37;;;;;;;3.20;0.93;;;3.70;99.90;;;;;;5053357;28;20021;-71
2022/02/02 09:49:10;;;;;;;2.72;0.82;;;3.60;99.90;;;;;;5053598;28;20024;-71
2022/02/02 09:51:46;;;;;;;0.80;0.77;;;3.60;99.90;;;;;;5053138;28;20017;-71
2022/02/02 09:57:11;;;;;;;3.25;3.05;;;3.80;99.90;;;;;;5052900;28;20032;-75
2022/02/02 09:59:51;;;;;;;0.13;0.13;;;4.00;99.90;;;;;;5036377;28;20029;-72
2022/02/02 10:02:59;;;;;;;0.20;0.20;;;4.30;99.90;;;;;;5052887;28;20032;-69
2022/02/02 10:13:24;;;;;;;6.82;1.35;;;3.90;99.90;;;;;;5043634;28;20151;-72
2022/02/02 10:15:53;;;;;;;0.22;0.22;;;3.90;99.90;;;;;;5041024;28;20028;-71
2022/02/02 10:18:25;;;;;;;1.23;0.30;;;3.90;99.90;;;;;;5022703;28;20036;-71
2022/02/02 10:20:53;;;;;;;0.15;0.15;;;3.80;99.90;;;;;;5043850;28;20027;-71
2022/02/02 10:23:24;;;;;;;0.20;0.20;;;3.80;99.90;;;;;;5039563;28;20037;-71
2022/02/02 10:25:57;;;;;;;10.85;3.08;;;3.80;99.90;;;;;;5025027;28;20046;-71
2022/02/02 10:28:32;;;;;;;6.10;2.78;;;3.80;99.90;;;;;;5052113;28;20519;-72
2022/02/02 10:31:04;;;;;;;4.00;2.05;;;3.90;99.90;;;;;;5053033;28;20504;-72
2022/02/02 10:33:31;;;;;;;1.25;0.77;;;4.00;99.90;;;;;;5039520;28;20025;-72
2022/02/02 10:36:21;;;;;;;2.90;1.08;;;4.10;99.90;;;;;;5052534;28;20055;-72
2022/02/02 10:39:08;;;;;;;2.03;1.00;;;4.10;99.90;;;;;;5047280;28;20044;-72
2022/02/02 10:41:48;;;;;;;12.10;2.40;;;4.20;99.90;;;;;;5052787;28;20032;-70
2022/02/02 10:44:17;;;;;;;6.22;1.55;;;4.30;99.90;;;;;;5051197;28;20086;-72
2022/02/02 10:47:05;;;;;;;7.78;1.38;;;4.30;99.90;;;;;;5052567;28;20024;-72
2022/02/02 10:55:28;;;;;;;0.20;0.20;;;4.40;99.90;;;;;;5049768;28;20560;-73
2022/02/02 11:00:33;;;;;;;0.15;0.15;;;4.50;99.90;;;;;;5043573;28;20029;-73
2022/02/02 11:08:28;;;;;;;1.23;1.13;;;4.70;99.90;;;;;;5051904;28;20021;-72
2022/02/02 11:10:58;;;;;;;5.47;1.77;;;4.60;99.90;;;;;;5059520;28;20017;-72
2022/02/02 11:13:26;;;;;;;3.55;1.00;;;4.60;99.90;;;;;;5051994;28;20021;-72
2022/02/02 11:15:55;;;;;;;0.20;0.20;;;4.40;99.90;;;;;;5052549;28;20033;-72
2022/02/02 11:18:27;;;;;;;6.03;1.88;;;4.40;99.90;;;;;;5051391;28;20039;-72
2022/02/02 11:20:53;;;;;;;3.20;0.45;;;4.40;99.90;;;;;;5052097;28;20364;-72
2022/02/02 11:23:22;;;;;;;0.75;0.55;;;4.40;99.90;;;;;;5051823;28;20041;-72
2022/02/02 11:25:59;;;;;;;1.13;0.30;;;4.40;99.90;;;;;;5050703;28;20459;-72
2022/02/02 11:28:33;;;;;;;1.23;0.43;;;4.30;99.90;;;;;;5051418;28;20461;-71
2022/02/02 11:31:11;;;;;;;1.20;0.93;;;4.20;99.90;;;;;;5047525;28;20036;-72
2022/02/02 11:33:54;;;;;;;2.30;1.13;;;4.20;99.90;;;;;;5050891;28;20414;-72
2022/02/02 11:36:35;;;;;;;0.30;0.30;;;4.20;99.90;;;;;;5051823;28;20037;-72
2022/02/02 11:39:05;;;;;;;0.70;0.70;;;4.20;99.90;;;;;;5035810;28;20032;-72
2022/02/02 11:41:56;;;;;;;0.40;0.40;;;4.20;99.90;;;;;;5051861;28;20283;-72
2022/02/02 11:44:40;;;;;;;0.68;0.68;;;4.30;99.90;;;;;;5051349;28;20108;-71
2022/02/02 11:47:20;;;;;;;1.52;1.17;;;4.20;99.90;;;;;;5023123;28;20055;-72
2022/02/02 11:49:51;;;;;;;3.15;0.95;;;4.30;99.90;;;;;;5051406;28;20361;-72
2022/02/02 11:52:44;;;;;;;0.13;0.13;;;4.50;99.90;;;;;;5027504;28;20029;-72
2022/02/02 11:55:12;;;;;;;;;;;4.50;99.90;;;;;;5040389;28;20025;-72
2022/02/02 11:58:12;;;;;;;3.83;1.05;;;4.60;99.90;;;;;;5051417;28;19904;-72
2022/02/02 12:06:25;;;;;;;0.82;0.82;;;4.90;99.90;;;;;;5033596;28;20028;-72
2022/02/02 12:21:16;;;;;;;0.10;0.10;;;4.80;99.90;;;;;;5037520;28;20033;-72
2022/02/02 12:45:09;;;;;;;2.45;1.10;;;7.50;99.90;;;;;;5049518;28;20029;-72
2022/02/02 12:50:28;;;;;;;0.80;0.70;;;6.70;99.90;;;;;;5050696;28;20051;-72
2022/02/02 12:58:28;;;;;;;0.20;0.20;;;5.80;99.90;;;;;;5049128;28;20036;-72
2022/02/02 13:01:09;;;;;;;4.88;1.20;;;5.60;99.90;;;;;;5050128;28;20604;-73
2022/02/02 13:03:39;;;;;;;3.00;0.75;;;5.50;99.90;;;;;;5034364;28;20024;-72
2022/02/02 13:06:18;;;;;;;0.20;0.20;;;5.30;99.90;;;;;;5020746;28;20036;-71
2022/02/02 13:08:47;;;;;;;0.85;0.85;;;5.30;99.90;;;;;;5047961;28;20025;-72
2022/02/02 13:11:12;;;;;;;4.97;1.08;;;5.00;99.90;;;;;;5049086;28;20452;-72
2022/02/02 13:13:45;;;;;;;0.20;0.20;;;4.70;99.90;;;;;;5048796;28;20064;-72
2022/02/02 13:16:18;;;;;;;0.20;0.20;;;4.70;99.90;;;;;;5048864;28;20029;-72
2022/02/02 13:18:48;;;;;;;0.15;0.15;;;4.60;99.90;;;;;;5050105;28;20047;-72
2022/02/02 13:21:34;;;;;;;0.20;0.20;;;4.60;99.90;;;;;;5049948;28;20025;-72
2022/02/02 13:26:50;;;;;;;0.20;0.20;;;4.70;99.90;;;;;;5038649;28;20028;-72
2022/02/02 13:29:34;;;;;;;0.73;0.73;;;4.80;99.90;;;;;;5052154;28;20511;-73
2022/02/02 14:01:24;;;;;;;1.33;0.57;;;5.20;99.90;;;;;;5053309;28;20037;-74
2022/02/02 14:04:01;;;;;;;2.65;2.03;;;5.30;99.90;;;;;;5052252;28;20056;-71
2022/02/02 14:33:28;;;;;;;0.38;0.38;;;4.50;99.90;;;;;;5049541;28;20059;-71
2022/02/02 14:35:57;;;;;;;0.10;0.10;;;4.50;99.90;;;;;;5052525;28;20439;-71
2022/02/02 14:38:24;;;;;;;0.20;0.20;;;4.50;99.90;;;;;;5053216;28;20061;-71
2022/02/02 14:43:21;;;;;;;5.70;0.85;;;4.50;99.90;;;;;;5051619;28;20415;-72
2022/02/02 14:45:55;;;;;;;7.13;0.70;;;4.60;99.90;;;;;;5042737;28;20048;-72
2022/02/02 14:48:47;;;;;;;0.15;0.15;;;4.50;99.90;;;;;;5052418;28;20372;-72
2022/02/02 15:05:19;;;;;;;0.30;0.30;;;4.60;99.90;;;;;;5036420;28;20032;-71
2022/02/02 15:29:06;;;;;;;8.10;1.13;;;4.60;99.90;;;;;;5040601;28;20519;-72
2022/02/02 15:31:33;;;;;;;1.25;1.05;;;4.50;99.90;;;;;;5050457;28;20448;-72
2022/02/02 15:34:00;;;;;;;0.20;0.20;;;4.60;99.90;;;;;;5050032;28;20028;-72
2022/02/02 15:38:54;;;;;;;0.20;0.20;;;4.60;99.90;;;;;;5051583;28;20036;-72
2022/02/02 15:41:26;;;;;;;2.33;2.22;;;4.70;99.90;;;;;;5038844;28;20033;-72
2022/02/02 16:03:05;;;;;;;0.40;0.40;;;4.90;99.90;;;;;;5050750;28;20484;-72
2022/02/02 16:06:09;;;;;;;0.50;0.50;;;4.70;99.90;;;;;;5051014;28;20548;-72
2022/02/02 16:08:26;;;;;;;0.43;0.43;;;4.60;99.90;;;;;;5027830;28;20082;-72
2022/02/02 16:15:58;;;;;;;0.70;0.68;;;4.70;99.90;;;;;;5050966;28;20422;-72
2022/02/02 16:32:10;;;;;;;0.10;0.10;;;4.50;99.90;;;;;;5050254;28;20269;-73
2022/02/02 16:37:06;;;;;;;0.98;0.60;;;4.50;99.90;;;;;;5050332;28;20075;-73
2022/02/02 16:39:35;;;;;;;0.75;0.75;;;4.50;99.90;;;;;;5025442;28;20025;-72
2022/02/02 16:44:46;;;;;;;0.20;0.20;;;4.50;99.90;;;;;;5050137;28;20359;-72
2022/02/02 16:47:11;;;;;;;0.30;0.30;;;4.60;99.90;;;;;;5050726;28;20465;-72
2022/02/02 16:49:37;;;;;;;0.20;0.20;;;4.50;99.90;;;;;;5032423;28;20021;-72
2022/02/02 16:52:03;;;;;;;0.30;0.30;;;4.50;99.90;;;;;;5019574;28;20021;-72
2022/02/02 16:54:35;;;;;;;0.30;0.30;;;4.60;99.90;;;;;;5039881;28;20037;-72
2022/02/02 16:57:23;;;;;;;0.20;0.20;;;4.50;99.90;;;;;;5050860;28;20021;-75
2022/02/02 17:26:00;;;;;;;0.80;0.80;;;4.30;99.90;;;;;;5054356;28;20086;-71
2022/02/02 17:35:24;;;;;;;6.10;3.15;;;4.00;99.90;;;;;;5053921;28;20392;-71
2022/02/02 17:40:42;;;;;;;1.95;1.58;;;3.90;99.90;;;;;;5052910;28;20033;-71
2022/02/02 17:43:33;;;;;;;5.68;2.30;;;3.80;99.90;;;;;;5038350;28;20119;-71
2022/02/02 18:13:13;;;;;;;0.22;0.22;;;3.50;99.90;;;;;;5022908;28;20033;-72
2022/02/02 18:20:46;;;;;;;0.77;0.50;;;3.40;99.90;;;;;;5053252;28;20039;-71
2022/02/02 18:25:51;;;;;;;3.05;1.05;;;3.40;99.90;;;;;;5053394;28;20390;-71
2022/02/02 18:33:57;;;;;;;2.28;1.65;;;3.30;99.90;;;;;;5031805;28;20029;-72
2022/02/02 18:43:06;;;;;;;3.55;1.10;;;3.30;99.90;;;;;;5052628;28;20025;-71
2022/02/02 18:45:13;;;;;;;2.22;0.90;;;3.30;99.90;;;;;;5040503;28;20099;-71
2022/02/02 18:47:43;;;;;;;0.65;0.65;;;3.40;99.90;;;;;;5052583;28;20029;-71
2022/02/02 18:58:27;;;;;;;1.63;1.20;;;3.40;99.90;;;;;;5053483;28;20024;-71
2022/02/02 20:08:39;;;;;;;;;;;3.80;99.90;;;;;;5052947;28;20041;-72
2022/02/02 20:11:16;;;;;;;0.20;0.20;;;3.80;99.90;;;;;;5052146;28;19944;-72
2022/02/02 20:13:42;;;;;;;0.10;0.10;;;3.90;99.90;;;;;;5017659;28;20032;-72
2022/02/02 20:16:08;;;;;;;0.30;0.30;;;3.80;99.90;;;;;;5051910;28;20025;-72
2022/02/02 20:18:38;;;;;;;0.20;0.20;;;3.70;99.90;;;;;;5052061;28;20037;-72
2022/02/02 20:21:07;;;;;;;0.20;0.20;;;3.50;99.90;;;;;;5051962;28;20021;-72
2022/02/02 20:23:39;;;;;;;0.22;0.22;;;3.60;99.90;;;;;;5051976;28;20032;-72
2022/02/02 20:26:07;;;;;;;0.52;0.40;;;3.50;99.90;;;;;;5033669;28;20025;-72
2022/02/02 20:28:32;;;;;;;2.67;1.60;;;3.50;99.90;;;;;;5051919;28;20063;-72
2022/02/02 20:30:58;;;;;;;0.30;0.30;;;3.40;99.90;;;;;;5051872;28;20044;-72
2022/02/02 20:33:24;;;;;;;0.20;0.20;;;3.50;99.90;;;;;;5033778;28;20044;-72
2022/02/02 20:35:50;;;;;;;0.10;0.10;;;3.50;99.90;;;;;;5033930;28;20071;-72
2022/02/02 20:38:15;;;;;;;0.20;0.20;;;3.50;99.90;;;;;;5052081;28;20021;-72
2022/02/02 20:40:41;;;;;;;0.20;0.20;;;3.50;99.90;;;;;;5034220;28;20021;-73
2022/02/02 20:43:25;;;;;;;0.10;0.10;;;3.60;99.90;;;;;;5050953;28;20044;-73
2022/02/02 21:10:17;;;;;;;1.38;0.68;;;3.40;99.90;;;;;;5033585;28;20120;-72
2022/02/02 21:15:31;;;;;;;0.20;0.20;;;3.30;99.90;;;;;;5033444;28;20100;-72
2022/02/02 21:18:05;;;;;;;0.20;0.20;;;3.30;99.90;;;;;;5033470;28;20461;-73
2022/02/02 21:20:39;;;;;;;0.80;0.80;;;3.30;99.90;;;;;;5051380;28;20025;-72
2022/02/02 21:23:12;;;;;;;0.20;0.20;;;3.30;99.90;;;;;;5051479;28;20074;-72
2022/02/02 21:28:09;;;;;;;0.13;0.13;;;3.40;99.90;;;;;;5051366;28;20147;-73
2022/02/02 21:30:37;;;;;;;0.30;0.30;;;3.30;99.90;;;;;;5033454;28;20032;-73
2022/02/02 21:33:03;;;;;;;0.68;0.68;;;3.40;99.90;;;;;;5051254;28;20021;-72
2022/02/02 21:35:29;;;;;;;0.20;0.20;;;3.40;99.90;;;;;;5051312;28;20037;-73
2022/02/02 21:38:09;;;;;;;0.15;0.15;;;3.50;99.90;;;;;;5051294;28;20025;-73
2022/02/02 21:40:36;;;;;;;0.10;0.10;;;3.70;99.90;;;;;;5051190;28;20495;-73
2022/02/02 21:43:02;;;;;;;0.10;0.10;;;3.80;99.90;;;;;;5051119;28;20107;-73
2022/02/02 21:45:30;;;;;;;3.55;0.55;;;3.90;99.90;;;;;;5051025;28;20152;-72
2022/02/02 21:47:57;;;;;;;0.20;0.20;;;3.90;99.90;;;;;;5051219;28;20013;-73
2022/02/02 21:50:24;;;;;;;0.30;0.30;;;4.00;99.90;;;;;;5051092;28;20017;-72
2022/02/02 21:52:50;;;;;;;0.10;0.10;;;3.90;99.90;;;;;;5033026;28;20405;-72
2022/02/02 21:55:16;;;;;;;0.20;0.20;;;3.90;99.90;;;;;;5052368;28;20035;-72
2022/02/02 21:57:44;;;;;;;2.38;0.70;;;3.90;99.90;;;;;;5054690;28;20058;-72
2022/02/02 22:00:12;;;;;;;0.77;0.77;;;3.90;99.90;;;;;;5054663;28;20108;-73
2022/02/02 22:02:39;;;;;;;1.98;1.75;;;3.80;99.90;;;;;;5054477;28;20285;-73
2022/02/02 22:05:07;;;;;;;0.28;0.28;;;3.70;99.90;;;;;;5054561;28;20021;-73
2022/02/02 22:07:33;;;;;;;0.30;0.30;;;3.80;99.90;;;;;;5054373;28;20028;-72
2022/02/02 22:10:00;;;;;;;0.45;0.45;;;3.70;99.90;;;;;;5054508;28;20028;-72
2022/02/02 22:12:27;;;;;;;3.28;1.27;;;3.70;99.90;;;;;;5054451;28;20504;-72
2022/02/02 22:14:54;;;;;;;14.23;1.67;;;3.70;99.90;;;;;;5054463;28;20044;-72
2022/02/02 22:17:23;;;;;;;0.65;0.65;;;3.60;99.90;;;;;;5054142;28;20025;-73
2022/02/02 22:19:52;;;;;;;1.05;0.88;;;3.60;99.90;;;;;;5054504;28;20021;-72
2022/02/02 22:22:18;;;;;;;0.30;0.30;;;3.50;99.90;;;;;;5054204;28;20029;-72
2022/02/02 22:24:45;;;;;;;0.45;0.45;;;3.50;99.90;;;;;;5054138;28;20029;-72
2022/02/02 22:27:11;;;;;;;0.40;0.40;;;3.50;99.90;;;;;;5054090;28;20017;-72
2022/02/02 22:29:37;;;;;;;0.55;0.45;;;3.50;99.90;;;;;;5036213;28;20028;-72
2022/02/02 22:32:04;;;;;;;0.85;0.55;;;3.60;99.90;;;;;;5053989;28;20021;-73
2022/02/02 22:34:30;;;;;;;2.08;0.77;;;3.60;99.90;;;;;;5035976;28;20083;-72
2022/02/02 22:36:56;;;;;;;1.85;1.75;;;3.60;99.90;;;;;;5054000;28;20037;-72
2022/02/02 22:39:22;;;;;;;0.30;0.30;;;3.60;99.90;;;;;;5036179;28;20122;-72
2022/02/02 22:41:49;;;;;;;0.60;0.47;;;3.70;99.90;;;;;;5053882;28;20025;-72
2022/02/02 22:44:16;;;;;;;0.40;0.17;;;3.70;99.90;;;;;;5053867;28;20033;-72
2022/02/02 22:46:42;;;;;;;0.13;0.13;;;3.70;99.90;;;;;;5054000;28;20384;-72
2022/02/02 22:49:08;;;;;;;0.10;0.10;;;3.90;99.90;;;;;;5053659;28;20100;-73
2022/02/02 22:51:34;;;;;;;0.10;0.10;;;4.00;99.90;;;;;;5035806;28;20029;-72
2022/02/02 22:54:01;;;;;;;0.10;0.10;;;4.10;99.90;;;;;;5053464;28;20037;-73
2022/02/02 22:56:27;;;;;;;0.15;0.15;;;4.20;99.90;;;;;;5053523;28;20096;-73
2022/02/02 22:58:55;;;;;;;0.30;0.30;;;4.30;99.90;;;;;;5053730;28;20476;-72
2022/02/02 23:01:21;;;;;;;0.10;0.10;;;4.30;99.90;;;;;;5053592;28;20430;-73
2022/02/02 23:03:48;;;;;;;0.10;0.10;;;4.20;99.90;;;;;;5053860;28;20033;-72
2022/02/02 23:06:14;;;;;;;0.10;0.10;;;4.30;99.90;;;;;;5034928;28;20016;-72
2022/02/02 23:08:40;;;;;;;0.10;0.10;;;4.30;99.90;;;;;;5053294;28;20036;-72
2022/02/02 23:11:06;;;;;;;4.97;1.27;;;4.40;99.90;;;;;;5035522;28;20021;-73
2022/02/02 23:13:33;;;;;;;1.08;0.63;;;4.30;99.90;;;;;;5053307;28;20032;-73
2022/02/02 23:18:34;;;;;;;0.10;0.10;;;4.30;99.90;;;;;;5053480;28;20549;-72
2022/02/02 23:21:04;;;;;;;0.10;0.10;;;4.30;99.90;;;;;;5053171;28;20045;-73
2022/02/02 23:23:37;;;;;;;0.85;0.85;;;4.40;99.90;;;;;;5052988;28;20031;-72
2022/02/02 23:26:04;;;;;;;0.10;0.10;;;4.40;99.90;;;;;;5035186;28;20025;-73
2022/02/02 23:28:35;;;;;;;0.17;0.17;;;4.50;99.90;;;;;;5035091;28;20021;-73
2022/02/02 23:31:04;;;;;;;0.10;0.10;;;4.60;99.90;;;;;;5035165;28;20055;-73
2022/02/02 23:33:31;;;;;;;0.20;0.20;;;4.70;99.90;;;;;;5052858;28;20435;-72
2022/02/02 23:36:00;;;;;;;0.10;0.10;;;4.70;99.90;;;;;;5034893;28;20447;-73
2022/02/02 23:38:26;;;;;;;0.10;0.10;;;4.80;99.90;;;;;;5052944;28;20429;-73
2022/02/02 23:43:21;;;;;;;0.10;0.10;;;4.80;99.90;;;;;;5034690;28;20059;-72
2022/02/02 23:45:57;;;;;;;0.10;0.10;;;4.70;99.90;;;;;;5052591;28;20028;-72
2022/02/02 23:48:25;;;;;;;0.20;0.20;;;4.70;99.90;;;;;;5052699;28;20032;-72
2022/02/02 23:50:54;;;;;;;0.10;0.10;;;4.50;99.90;;;;;;5034845;28;20396;-72
2022/02/02 23:53:21;;;;;;;2.53;0.98;;;4.40;99.90;;;;;;5034503;28;20039;-72
2022/02/02 23:56:01;;;;;;;0.57;0.57;;;4.30;99.90;;;;;;5034368;28;20428;-72
2022/02/02 23:58:40;;;;;;;1.02;1.02;;;4.20;99.90;;;;;;5052584;28;20304;-72
